createdAt,value
2022-11-03T00:02:24.653Z,100403.63
2022-11-03T00:04:54.608Z,100409.47
2022-11-03T00:07:24.349Z,100410.09
2022-11-03T00:09:54.339Z,100410.28
2022-11-03T00:12:25.408Z,100400.59
2022-11-03T00:14:56.347Z,100412.34
2022-11-03T00:17:26.165Z,100402.63
2022-11-03T00:19:56.158Z,100407.25
2022-11-03T00:22:26.899Z,100403.03
2022-11-03T00:24:57.466Z,100403.88
2022-11-03T00:27:27.401Z,100383.56
2022-11-03T00:29:59.458Z,100391.28
2022-11-03T00:32:29.257Z,100387.63
2022-11-03T00:34:59.142Z,100390.03
2022-11-03T00:37:30.696Z,100385.19
2022-11-03T00:40:00.739Z,100383.75
2022-11-03T00:42:30.422Z,100369.97
2022-11-03T00:45:01.575Z,100374.44
2022-11-03T00:47:32.097Z,100358.75
2022-11-03T00:50:02.409Z,100355.97
2022-11-03T00:52:34.893Z,100358.75
2022-11-03T00:55:04.208Z,100351.06
2022-11-03T00:57:33.802Z,100355.53
2022-11-03T01:00:05.856Z,100342.56
2022-11-03T01:02:35.964Z,100351.72
2022-11-03T01:05:23.192Z,100337.50
2022-11-03T01:07:53.978Z,100335.69
2022-11-03T01:10:23.610Z,100344.03
2022-11-03T01:12:52.941Z,100346.28
2022-11-03T01:15:24.012Z,100349.97
2022-11-03T01:17:54.552Z,100340.41
2022-11-03T01:20:24.592Z,100344.09
2022-11-03T01:22:55.067Z,100334.31
2022-11-03T01:25:25.836Z,100339.81
2022-11-03T01:27:55.697Z,100332.09
2022-11-03T01:30:27.275Z,100324.16
2022-11-03T01:32:58.675Z,100326.44
2022-11-03T01:35:28.223Z,100332.91
2022-11-03T01:37:59.137Z,100323.97
2022-11-03T01:40:33.680Z,100317.50
2022-11-03T01:43:18.076Z,100311.84
2022-11-03T01:45:51.960Z,100314.47
2022-11-03T01:48:25.401Z,100318.16
2022-11-03T01:50:57.741Z,100308.38
2022-11-03T01:53:28.850Z,100311.84
2022-11-03T01:55:59.637Z,100292.13
2022-11-03T01:58:32.406Z,100298.88
2022-11-03T02:01:05.343Z,100302.53
2022-11-03T02:03:40.438Z,100288.16
2022-11-03T02:06:10.884Z,100290.34
2022-11-03T02:08:48.316Z,100292.19
2022-11-03T02:11:35.795Z,100295.63
2022-11-03T02:14:05.849Z,100280.66
2022-11-03T02:16:36.902Z,100284.91
2022-11-03T02:19:11.085Z,100271.91
2022-11-03T02:21:54.347Z,100269.47
2022-11-03T02:24:36.915Z,100271.69
2022-11-03T02:27:09.405Z,100266.81
2022-11-03T02:29:43.190Z,100261.75
2022-11-03T02:32:27.246Z,100253.47
2022-11-03T02:35:16.611Z,100253.03
2022-11-03T02:37:55.839Z,100240.06
2022-11-03T02:40:33.539Z,100238.63
2022-11-03T02:43:09.631Z,100227.22
2022-11-03T02:45:42.070Z,100225.84
2022-11-03T02:48:16.167Z,100239.22
2022-11-03T02:50:46.482Z,100232.34
2022-11-03T02:53:18.469Z,100219.34
2022-11-03T02:55:56.916Z,100218.31
2022-11-03T02:58:36.218Z,100207.13
2022-11-03T03:01:15.294Z,100212.22
2022-11-03T03:03:49.169Z,100203.06
2022-11-03T03:06:25.376Z,100196.97
2022-11-03T03:09:01.686Z,100182.34
2022-11-03T03:11:39.846Z,100179.50
2022-11-03T03:14:16.911Z,100191.28
2022-11-03T03:16:57.740Z,100180.53
2022-11-03T03:19:43.906Z,100183.38
2022-11-03T03:22:25.247Z,100180.53
2022-11-03T03:25:05.366Z,100170.41
2022-11-03T03:27:46.050Z,100174.88
2022-11-03T03:30:22.873Z,100177.72
2022-11-03T03:32:55.816Z,100176.28
2022-11-03T03:35:33.119Z,100170.81
2022-11-03T03:38:18.084Z,100174.72
2022-11-03T03:40:53.281Z,100168.59
2022-11-03T03:43:32.119Z,100162.31
2022-11-03T03:46:12.431Z,100158.88
2022-11-03T03:48:43.387Z,100147.31
2022-11-03T03:51:15.790Z,100152.19
2022-11-03T03:53:45.233Z,100146.91
2022-11-03T03:56:15.410Z,100154.22
2022-11-03T03:58:46.726Z,100147.94
2022-11-03T04:01:21.265Z,100135.94
2022-11-03T04:03:54.798Z,100139.03
2022-11-03T04:06:25.323Z,100133.97
2022-11-03T04:08:55.588Z,100132.13
2022-11-03T04:11:43.968Z,100137.03
2022-11-03T04:14:32.581Z,100125.84
2022-11-03T04:17:22.581Z,100126.50
2022-11-03T04:20:09.365Z,100120.41
2022-11-03T04:22:41.909Z,100125.91
2022-11-03T04:25:14.352Z,100123.06
2022-11-03T04:27:44.945Z,100122.44
2022-11-03T04:30:25.347Z,100118.41
2022-11-03T04:33:00.246Z,100123.63
2022-11-03T04:35:34.931Z,100114.91
2022-11-03T04:38:12.756Z,100114.97
2022-11-03T04:40:51.978Z,100107.84
2022-11-03T04:43:36.590Z,100115.75
2022-11-03T04:46:08.398Z,100109.69
2022-11-03T04:48:40.169Z,100107.47
2022-11-03T04:51:17.280Z,100099.72
2022-11-03T04:53:52.021Z,100102.56
2022-11-03T04:56:24.146Z,100106.03
2022-11-03T04:58:53.984Z,100098.31
2022-11-03T05:01:24.938Z,100090.81
2022-11-03T05:03:56.078Z,100085.75
2022-11-03T05:06:28.308Z,100090.00
2022-11-03T05:09:03.584Z,100085.16
2022-11-03T05:11:35.812Z,100091.28
2022-11-03T05:14:08.854Z,100071.78
2022-11-03T05:16:37.379Z,100076.44
2022-11-03T05:19:17.183Z,100072.41
2022-11-03T05:21:45.819Z,100071.78
2022-11-03T05:26:49.820Z,100061.66
2022-11-03T05:29:23.329Z,100046.84
2022-11-03T05:31:54.987Z,100052.69
2022-11-03T05:34:36.760Z,100044.22
2022-11-03T05:37:26.735Z,100036.28
2022-11-03T05:39:59.774Z,100035.69
2022-11-03T05:42:35.042Z,100029.59
2022-11-03T05:45:12.619Z,100029.59
2022-11-03T05:47:42.368Z,100029.03
2022-11-03T05:50:22.424Z,100035.31
2022-11-03T05:52:55.371Z,100035.72
2022-11-03T05:55:29.524Z,100041.84
2022-11-03T05:58:01.058Z,100037.00
2022-11-03T06:00:32.826Z,100022.38
2022-11-03T06:03:02.344Z,100032.50
2022-11-03T06:05:33.613Z,100021.16
2022-11-03T06:08:05.097Z,100019.50
2022-11-03T06:10:37.798Z,100007.34
2022-11-03T06:13:13.142Z,99995.59
2022-11-03T06:15:45.316Z,99992.75
2022-11-03T06:18:22.534Z,99987.47
2022-11-03T06:20:55.920Z,99997.22
2022-11-03T06:23:25.150Z,99972.47
2022-11-03T06:25:55.744Z,99984.00
2022-11-03T06:28:29.810Z,99981.38
2022-11-03T06:30:58.494Z,99985.03
2022-11-03T06:33:30.254Z,99979.78
2022-11-03T06:36:14.476Z,99986.06
2022-11-03T06:38:44.635Z,99974.91
2022-11-03T06:41:21.926Z,99984.66
2022-11-03T06:43:51.894Z,99984.66
2022-11-03T06:46:25.067Z,99984.91
2022-11-03T06:48:56.246Z,99975.78
2022-11-03T06:51:32.889Z,99986.94
2022-11-03T06:54:03.192Z,99967.22
2022-11-03T06:56:37.108Z,99970.53
2022-11-03T06:59:10.895Z,99963.19
2022-11-03T07:01:48.281Z,99962.16
2022-11-03T07:04:22.374Z,99966.44
2022-11-03T07:06:53.864Z,99949.97
2022-11-03T07:09:26.492Z,99942.28
2022-11-03T07:11:58.289Z,99948.16
2022-11-03T07:14:30.402Z,99949.56
2022-11-03T07:17:05.986Z,99934.38
2022-11-03T07:19:39.763Z,99935.38
2022-11-03T07:22:18.308Z,99934.16
2022-11-03T07:24:48.943Z,99919.72
2022-11-03T07:27:25.709Z,99921.75
2022-11-03T07:29:59.234Z,99915.81
2022-11-03T07:32:33.742Z,99910.53
2022-11-03T07:35:11.495Z,99911.81
2022-11-03T07:37:41.431Z,99915.63
2022-11-03T07:40:15.105Z,99908.50
2022-11-03T07:42:43.862Z,99920.66
2022-11-03T07:45:37.245Z,99904.25
2022-11-03T07:48:20.643Z,99892.66
2022-11-03T07:50:49.506Z,99889.59
2022-11-03T07:53:26.233Z,99883.28
2022-11-03T07:55:57.376Z,99878.59
2022-11-03T07:58:36.888Z,99877.34
2022-11-03T08:01:28.302Z,99865.19
2022-11-03T08:04:04.498Z,99863.94
2022-11-03T08:06:33.765Z,99856.59
2022-11-03T08:09:03.825Z,99841.00
2022-11-03T08:11:32.530Z,99837.69
2022-11-03T08:14:00.952Z,99829.75
2022-11-03T08:16:29.410Z,99826.25
2022-11-03T08:18:58.417Z,99820.16
2022-11-03T08:21:27.648Z,99812.00
2022-11-03T08:24:00.321Z,99802.50
2022-11-03T08:26:31.424Z,99823.53
2022-11-03T08:29:00.968Z,99799.41
2022-11-03T08:31:31.395Z,99781.28
2022-11-03T08:34:03.333Z,99780.03
2022-11-03T08:36:37.589Z,99780.63
2022-11-03T08:39:07.343Z,99784.66
2022-11-03T08:41:37.602Z,99793.50
2022-11-03T08:44:08.221Z,99788.22
2022-11-03T08:46:39.148Z,99785.16
2022-11-03T08:49:21.905Z,99787.09
2022-11-03T08:51:57.818Z,99779.78
2022-11-03T08:58:10.571Z,99776.09
2022-11-03T09:00:50.852Z,99789.22
2022-11-03T09:03:39.253Z,99785.34
2022-11-03T09:06:34.297Z,99779.63
2022-11-03T09:13:33.792Z,99766.72
2022-11-03T09:16:17.214Z,99761.66
2022-11-03T09:18:53.259Z,99764.13
2022-11-03T09:21:24.423Z,99757.94
2022-11-03T09:27:05.395Z,99767.03
2022-11-03T09:30:11.089Z,99738.03
2022-11-03T09:32:46.867Z,99721.69
2022-11-03T09:35:31.783Z,99735.72
2022-11-03T09:40:54.033Z,99714.97
2022-11-03T09:43:26.780Z,99712.16
2022-11-03T09:46:01.652Z,99710.75
2022-11-03T09:48:33.716Z,99693.34
2022-11-03T09:51:05.331Z,99700.44
2022-11-03T09:53:35.389Z,99692.19
2022-11-03T09:56:04.957Z,99675.31
2022-11-03T09:58:36.169Z,99674.94
2022-11-03T10:01:07.868Z,99680.31
2022-11-03T10:03:41.523Z,99688.19
2022-11-03T10:06:14.417Z,99685.97
2022-11-03T10:08:51.992Z,99674.16
2022-11-03T10:11:22.109Z,99669.25
2022-11-03T10:13:57.831Z,99660.81
2022-11-03T10:16:33.015Z,99655.09
2022-11-03T10:19:03.164Z,99649.88
2022-11-03T10:21:41.518Z,99654.50
2022-11-03T10:24:30.788Z,99640.28
2022-11-03T10:27:02.285Z,99621.44
2022-11-03T10:29:39.862Z,99613.31
2022-11-03T10:32:34.432Z,99618.69
2022-11-03T10:35:04.739Z,99613.16
2022-11-03T10:37:36.986Z,99607.97
2022-11-03T10:40:47.762Z,99606.38
2022-11-03T10:43:32.145Z,99610.47
2022-11-03T10:49:11.204Z,99606.38
2022-11-03T10:51:41.809Z,99602.97
2022-11-03T10:54:15.850Z,99587.63
2022-11-03T10:56:44.704Z,99577.06
2022-11-03T10:59:20.462Z,99572.41
2022-11-03T11:01:49.290Z,99568.97
2022-11-03T11:04:19.775Z,99556.28
2022-11-03T11:06:49.906Z,99550.19
2022-11-03T11:09:25.602Z,99539.38
2022-11-03T11:12:03.079Z,99544.19
2022-11-03T11:14:57.661Z,99539.16
2022-11-03T11:17:45.895Z,99529.84
2022-11-03T11:20:33.642Z,99531.50
2022-11-03T11:23:52.973Z,99521.66
2022-11-03T11:26:42.476Z,99512.69
2022-11-03T11:29:46.339Z,99516.44
2022-11-03T11:32:56.852Z,99503.19
2022-11-03T11:36:06.423Z,99497.59
2022-11-03T11:39:12.193Z,99501.34
2022-11-03T11:42:10.774Z,99499.78
2022-11-03T11:45:02.985Z,99502.72
2022-11-03T11:47:49.499Z,99498.47
2022-11-03T11:50:33.070Z,99502.50
2022-11-03T11:53:15.330Z,99499.56
2022-11-03T11:55:50.594Z,99508.38
2022-11-03T11:58:24.941Z,99510.78
2022-11-03T12:00:57.558Z,99498.81
2022-11-03T12:03:32.719Z,99495.66
2022-11-03T12:06:01.179Z,99484.00
2022-11-03T12:08:31.808Z,99475.72
2022-11-03T12:11:04.264Z,99465.66
2022-11-03T12:13:42.715Z,99447.81
2022-11-03T12:16:11.301Z,99462.47
2022-11-03T12:18:47.704Z,99449.16
2022-11-03T12:21:47.380Z,99428.13
2022-11-03T12:24:54.393Z,99422.00
2022-11-03T12:27:44.986Z,99413.22
2022-11-03T12:30:18.780Z,99400.47
2022-11-03T12:32:48.017Z,99393.84
2022-11-03T12:35:17.183Z,99389.31
2022-11-03T12:37:46.240Z,99399.16
2022-11-03T12:40:15.310Z,99394.91
2022-11-03T12:42:45.217Z,99390.91
2022-11-03T12:45:14.763Z,99381.63
2022-11-03T12:47:43.298Z,99389.09
2022-11-03T12:50:12.062Z,99378.44
2022-11-03T12:52:40.464Z,99377.38
2022-11-03T12:55:09.796Z,99372.03
2022-11-03T12:57:38.224Z,99376.06
2022-11-03T13:00:10.869Z,99372.31
2022-11-03T13:02:39.578Z,99356.34
2022-11-03T13:05:09.100Z,99349.97
2022-11-03T13:07:37.835Z,99344.63
2022-11-03T13:10:07.386Z,99343.56
2022-11-03T13:12:38.309Z,99343.56
2022-11-03T13:15:11.528Z,99324.69
2022-11-03T13:18:07.166Z,99309.81
2022-11-03T13:20:28.478Z,99309.25
2022-11-03T13:22:57.050Z,99297.56
2022-11-03T13:25:25.603Z,99303.94
2022-11-03T13:27:54.910Z,99290.66
2022-11-03T13:30:26.268Z,99280.53
2022-11-03T13:32:55.153Z,99289.84
2022-11-03T13:35:23.932Z,99270.94
2022-11-03T13:37:52.485Z,99245.16
2022-11-03T13:40:55.385Z,99232.34
2022-11-03T13:43:09.804Z,99225.94
2022-11-03T13:45:39.847Z,99226.50
2022-11-03T13:50:57.139Z,99200.16
2022-11-03T13:56:20.892Z,99198.56
2022-11-03T14:01:41.173Z,99196.41
2022-11-03T14:06:59.132Z,99187.38
2022-11-03T14:09:27.715Z,99162.34
2022-11-03T14:12:13.706Z,99154.34
2022-11-03T14:14:42.312Z,99156.47
2022-11-03T14:17:12.382Z,99171.41
2022-11-03T14:19:45.017Z,99177.53
2022-11-03T14:22:17.528Z,99173.53
2022-11-03T14:24:46.013Z,99174.31
2022-11-03T14:27:16.088Z,99167.41
2022-11-03T14:29:44.787Z,99163.41
2022-11-03T14:32:14.650Z,99156.22
2022-11-03T14:34:43.805Z,99151.19
2022-11-03T14:37:13.413Z,99135.22
2022-11-03T14:39:42.179Z,99134.13
2022-11-03T14:42:16.016Z,99136.00
2022-11-03T14:44:46.537Z,99131.47
2022-11-03T14:47:19.252Z,99122.97
2022-11-03T14:49:48.703Z,99121.13
2022-11-03T14:52:18.377Z,99118.69
2022-11-03T14:54:46.895Z,99112.34
2022-11-03T14:57:15.351Z,99097.16
2022-11-03T14:59:46.620Z,99096.38
2022-11-03T15:02:17.862Z,99087.31
2022-11-03T15:04:46.420Z,99076.66
2022-11-03T15:07:14.921Z,99083.56
2022-11-03T15:09:43.406Z,99073.72
2022-11-03T15:12:11.855Z,99079.31
2022-11-03T15:14:40.228Z,99074.00
2022-11-03T15:17:08.598Z,99080.13
2022-11-03T15:19:40.758Z,99070.53
2022-11-03T15:22:09.651Z,99064.44
2022-11-03T15:27:26.532Z,99063.34
2022-11-03T15:29:54.931Z,99071.09
2022-11-03T15:32:23.349Z,99062.84
2022-11-03T15:34:53.336Z,99067.09
2022-11-03T15:37:21.801Z,99057.53
2022-11-03T15:39:50.197Z,99059.09
2022-11-03T15:42:19.075Z,99052.19
2022-11-03T15:44:49.568Z,99045.28
2022-11-03T15:47:18.118Z,99043.69
2022-11-03T15:49:46.499Z,99028.78
2022-11-03T15:52:16.314Z,99024.53
2022-11-03T15:54:44.763Z,99024.81
2022-11-03T15:59:42.921Z,99003.25
2022-11-03T16:02:35.680Z,98992.63
2022-11-03T16:05:02.166Z,98992.66
2022-11-03T16:07:33.566Z,98986.78
2022-11-03T16:10:02.665Z,98990.53
2022-11-03T16:12:31.147Z,98980.41
2022-11-03T16:14:59.938Z,98971.41
2022-11-03T16:17:28.409Z,98972.72
2022-11-03T16:19:56.928Z,98975.63
2022-11-03T16:22:25.407Z,98967.91
2022-11-03T16:24:55.459Z,98966.59
2022-11-03T16:27:23.926Z,98970.84
2022-11-03T16:29:53.566Z,98965.00
2022-11-03T16:32:22.091Z,98958.88
2022-11-03T16:34:51.039Z,98968.19
2022-11-03T16:37:19.605Z,98962.38
2022-11-03T16:39:48.073Z,98959.16
2022-11-03T16:42:17.996Z,98960.25
2022-11-03T16:44:46.478Z,98961.84
2022-11-03T16:47:14.951Z,98959.47
2022-11-03T16:49:43.360Z,98971.97
2022-11-03T16:52:12.028Z,98954.38
2022-11-03T16:54:40.404Z,98961.88
2022-11-03T16:57:09.050Z,98974.13
2022-11-03T16:59:39.452Z,98962.41
2022-11-03T17:02:12.180Z,98974.91
2022-11-03T17:04:44.916Z,98975.94
2022-11-03T17:07:13.376Z,98973.03
2022-11-03T17:09:41.772Z,98969.31
2022-11-03T17:12:10.243Z,98957.06
2022-11-03T17:14:40.038Z,98937.41
2022-11-03T17:17:08.501Z,98935.31
2022-11-03T17:19:36.901Z,98932.63
2022-11-03T17:22:05.799Z,98924.91
2022-11-03T17:24:34.396Z,98910.81
2022-11-03T17:27:06.437Z,98903.13
2022-11-03T17:29:43.107Z,98900.22
2022-11-03T17:32:16.216Z,98891.97
2022-11-03T17:34:44.677Z,98888.25
2022-11-03T17:37:13.115Z,98887.44
2022-11-03T17:39:41.843Z,98887.72
2022-11-03T17:42:17.830Z,98880.28
2022-11-03T17:44:50.163Z,98871.81
2022-11-03T17:47:20.932Z,98870.44
2022-11-03T17:49:50.338Z,98861.97
2022-11-03T17:52:26.682Z,98845.47
2022-11-03T17:55:01.405Z,98848.66
2022-11-03T17:57:30.121Z,98858.25
2022-11-03T18:00:01.428Z,98851.63
2022-11-03T18:02:33.134Z,98847.09
2022-11-03T18:05:20.484Z,98835.41
2022-11-03T18:07:50.899Z,98865.19
2022-11-03T18:10:19.562Z,98883.78
2022-11-03T18:13:08.600Z,98894.44
2022-11-03T18:15:39.252Z,98887.78
2022-11-03T18:18:15.832Z,98874.75
2022-11-03T18:20:53.185Z,98871.59
2022-11-03T18:23:24.407Z,98859.63
2022-11-03T18:25:53.906Z,98851.41
2022-11-03T18:28:22.725Z,98850.31
2022-11-03T18:30:55.677Z,98842.63
2022-11-03T18:33:30.894Z,98837.03
2022-11-03T18:36:00.348Z,98833.31
2022-11-03T18:38:29.987Z,98837.56
2022-11-03T18:40:58.396Z,98843.97
2022-11-03T18:43:27.851Z,98831.19
2022-11-03T18:45:57.625Z,98812.06
2022-11-03T18:48:26.027Z,98816.56
2022-11-03T18:50:56.988Z,98819.22
2022-11-03T18:53:27.281Z,98826.41
2022-11-03T18:55:59.308Z,98825.31
2022-11-03T18:58:37.476Z,98820.53
2022-11-03T19:01:09.954Z,98823.22
2022-11-03T19:03:38.454Z,98823.47
2022-11-03T19:06:10.486Z,98825.06
2022-11-03T19:08:44.307Z,98821.59
2022-11-03T19:11:13.247Z,98819.22
2022-11-03T19:13:45.213Z,98838.34
2022-11-03T19:16:18.998Z,98840.47
2022-11-03T19:18:48.337Z,98846.59
2022-11-03T19:21:20.964Z,98837.03
2022-11-03T19:23:51.804Z,98830.63
2022-11-03T19:26:27.105Z,98817.34
2022-11-03T19:28:59.881Z,98820.53
2022-11-03T19:31:36.442Z,98807.53
2022-11-03T19:34:07.226Z,98794.00
2022-11-03T19:36:41.054Z,98797.75
2022-11-03T19:39:20.616Z,98796.38
2022-11-03T19:42:06.735Z,98780.97
2022-11-03T19:47:05.284Z,98783.88
2022-11-03T19:49:34.986Z,98796.13
2022-11-03T19:52:03.475Z,98793.19
2022-11-03T19:54:32.102Z,98782.84
2022-11-03T19:57:00.684Z,98781.22
2022-11-03T19:59:29.209Z,98783.38
2022-11-03T20:02:00.668Z,98780.69
2022-11-03T20:04:30.773Z,98762.13
2022-11-03T20:07:02.897Z,98766.34
2022-11-03T20:09:31.808Z,98768.47
2022-11-03T20:12:07.376Z,98753.34
2022-11-03T20:14:36.470Z,98751.19
2022-11-03T20:17:17.830Z,98747.25
2022-11-03T20:19:47.762Z,98760.50
2022-11-03T20:22:19.389Z,98754.66
2022-11-03T20:24:49.432Z,98752.53
2022-11-03T20:27:20.882Z,98744.84
2022-11-03T20:29:49.629Z,98746.41
2022-11-03T20:32:18.222Z,98729.69
2022-11-03T20:34:50.384Z,98735.78
2022-11-03T20:37:21.149Z,98736.63
2022-11-03T20:39:50.346Z,98750.66
2022-11-03T20:42:22.976Z,98757.84
2022-11-03T20:44:54.785Z,98745.88
2022-11-03T20:47:23.310Z,98744.28
2022-11-03T20:49:53.110Z,98738.69
2022-11-03T20:52:21.521Z,98731.25
2022-11-03T20:54:51.104Z,98730.44
2022-11-03T20:57:19.483Z,98727.53
2022-11-03T20:59:48.337Z,98726.44
2022-11-03T21:02:16.779Z,98723.25
2022-11-03T21:04:45.439Z,98716.88
2022-11-03T21:07:15.367Z,98716.88
2022-11-03T21:09:45.473Z,98716.34
2022-11-03T21:12:15.489Z,98700.41
2022-11-03T21:15:05.238Z,98700.41
2022-11-03T21:17:51.124Z,98689.78
2022-11-03T21:20:19.531Z,98695.88
2022-11-03T21:22:52.896Z,98694.25
2022-11-03T21:25:24.812Z,98687.91
2022-11-03T21:27:54.808Z,98698.25
2022-11-03T21:30:24.259Z,98697.44
2022-11-03T21:32:52.691Z,98714.97
2022-11-03T21:35:22.958Z,98710.19
2022-11-03T21:37:53.000Z,98711.53
2022-11-03T21:40:21.701Z,98718.16
2022-11-03T21:43:07.849Z,98702.22
2022-11-03T21:45:36.498Z,98708.88
2022-11-03T21:48:36.741Z,98713.66
2022-11-03T21:51:05.672Z,98738.66
2022-11-03T21:53:35.550Z,98740.22
2022-11-03T21:56:15.370Z,98749.28
2022-11-03T21:58:44.839Z,98747.66
2022-11-03T22:01:13.758Z,98727.75
2022-11-03T22:03:42.367Z,98719.50
2022-11-03T22:06:12.704Z,98744.75
2022-11-03T22:08:46.075Z,98761.53
2022-11-03T22:11:23.592Z,98780.94
2022-11-03T22:13:54.881Z,98786.25
2022-11-03T22:16:39.827Z,98784.13
2022-11-03T22:19:29.789Z,98795.25
2022-11-03T22:22:16.567Z,98796.34
2022-11-03T22:25:04.410Z,98798.50
2022-11-03T22:27:34.632Z,98817.88
2022-11-03T22:30:23.142Z,98799.28
2022-11-03T22:32:53.609Z,98814.72
2022-11-03T22:35:40.396Z,98815.78
2022-11-03T22:38:11.500Z,98832.78
2022-11-03T22:41:00.531Z,98826.97
2022-11-03T22:43:47.297Z,98819.78
2022-11-03T22:46:17.861Z,98828.56
2022-11-03T22:48:46.299Z,98831.22
2022-11-03T22:51:16.752Z,98819.00
2022-11-03T22:54:03.010Z,98825.38
2022-11-03T22:56:32.787Z,98853.03
2022-11-03T22:59:04.202Z,98848.75
2022-11-03T23:01:32.885Z,98848.22
2022-11-03T23:04:01.717Z,98848.22
2022-11-03T23:06:35.790Z,98855.41
2022-11-03T23:09:07.185Z,98875.88
2022-11-03T23:11:36.967Z,98868.97
2022-11-03T23:14:08.732Z,98886.75
2022-11-03T23:16:39.134Z,98909.09
2022-11-03T23:19:28.215Z,98904.84
2022-11-03T23:21:56.695Z,98908.84
2022-11-03T23:24:45.353Z,98908.00
2022-11-03T23:27:16.063Z,98895.00
2022-11-03T23:29:44.453Z,98895.56
2022-11-03T23:32:12.910Z,98891.03
2022-11-03T23:34:41.741Z,98902.69
2022-11-03T23:37:10.216Z,98897.66
2022-11-03T23:39:38.620Z,98898.19
2022-11-03T23:42:10.460Z,98926.09
2022-11-03T23:44:57.885Z,98925.31
2022-11-03T23:47:43.864Z,98936.97
2022-11-03T23:50:12.209Z,98934.59
2022-11-03T23:52:40.631Z,98943.38
2022-11-03T23:55:10.072Z,98948.69
2022-11-03T23:57:55.986Z,98951.34
